createdAt,value
2023-08-24T00:00:23.698Z,97724.67
2023-08-24T00:02:57.434Z,97722.94
2023-08-24T00:05:29.773Z,97723.23
2023-08-24T00:08:02.336Z,97722.67
2023-08-24T00:10:34.765Z,97721.17
2023-08-24T00:13:09.657Z,97724.73
2023-08-24T00:15:42.153Z,97725.39
2023-08-24T00:18:14.750Z,97723.52
2023-08-24T00:20:47.348Z,97722.21
2023-08-24T00:23:20.045Z,97721.29
2023-08-24T00:25:59.760Z,97719.05
2023-08-24T00:28:33.291Z,97724.74
2023-08-24T00:31:13.355Z,97722.52
2023-08-24T00:34:05.804Z,97719.64
2023-08-24T00:36:38.854Z,97719.92
2023-08-24T00:39:11.716Z,97721.70
2023-08-24T00:41:44.409Z,97725.41
2023-08-24T00:44:16.872Z,97726.02
2023-08-24T00:46:49.437Z,97724.94
2023-08-24T00:49:22.250Z,97721.88
2023-08-24T00:51:55.082Z,97718.80
2023-08-24T00:54:28.058Z,97720.05
2023-08-24T00:56:58.762Z,97717.89
2023-08-24T00:59:31.951Z,97716.83
2023-08-24T01:02:02.929Z,97718.84
2023-08-24T01:04:36.680Z,97722.54
2023-08-24T01:07:10.909Z,97719.88
2023-08-24T01:09:44.000Z,97721.05
2023-08-24T01:12:22.385Z,97721.29
2023-08-24T01:15:06.098Z,97721.30
2023-08-24T01:17:42.122Z,97724.93
2023-08-24T01:20:19.458Z,97729.88
2023-08-24T01:23:04.366Z,97725.85
2023-08-24T01:25:45.577Z,97726.42
2023-08-24T01:28:18.959Z,97727.81
2023-08-24T01:30:53.093Z,97723.70
2023-08-24T01:33:27.549Z,97727.03
2023-08-24T01:36:00.430Z,97722.98
2023-08-24T01:38:35.191Z,97720.80
2023-08-24T01:41:15.838Z,97721.09
2023-08-24T01:43:52.763Z,97721.73
2023-08-24T01:46:27.625Z,97721.60
2023-08-24T01:49:01.348Z,97723.17
2023-08-24T01:51:35.381Z,97722.55
2023-08-24T01:54:08.219Z,97718.14
2023-08-24T01:56:41.604Z,97718.23
2023-08-24T01:59:14.646Z,97715.56
2023-08-24T02:01:47.167Z,97713.77
2023-08-24T02:04:19.958Z,97715.27
2023-08-24T02:06:53.124Z,97715.88
2023-08-24T02:09:25.535Z,97710.61
2023-08-24T02:11:58.614Z,97710.75
2023-08-24T02:14:31.066Z,97707.67
2023-08-24T02:17:05.040Z,97706.38
2023-08-24T02:19:37.576Z,97704.18
2023-08-24T02:22:10.230Z,97706.73
2023-08-24T02:24:44.039Z,97706.05
2023-08-24T02:27:16.738Z,97703.60
2023-08-24T02:29:50.811Z,97701.21
2023-08-24T02:32:23.367Z,97698.95
2023-08-24T02:34:56.202Z,97700.60
2023-08-24T02:37:29.054Z,97696.75
2023-08-24T02:40:01.748Z,97698.63
2023-08-24T02:42:35.497Z,97701.55
2023-08-24T02:45:09.209Z,97698.79
2023-08-24T02:47:42.706Z,97699.59
2023-08-24T02:50:16.639Z,97702.20
2023-08-24T02:52:53.070Z,97697.39
2023-08-24T02:55:27.149Z,97695.48
2023-08-24T02:57:59.698Z,97692.90
2023-08-24T03:00:32.125Z,97690.46
2023-08-24T03:03:03.693Z,97690.64
2023-08-24T03:05:37.436Z,97688.49
2023-08-24T03:08:10.236Z,97692.35
2023-08-24T03:10:42.817Z,97692.55
2023-08-24T03:13:16.713Z,97694.37
2023-08-24T03:15:49.431Z,97698.15
2023-08-24T03:18:22.102Z,97698.70
2023-08-24T03:20:55.618Z,97702.43
2023-08-24T03:23:27.856Z,97702.69
2023-08-24T03:26:01.193Z,97702.20
2023-08-24T03:28:32.016Z,97700.61
2023-08-24T03:31:05.929Z,97705.44
2023-08-24T03:33:38.376Z,97699.96
2023-08-24T03:36:11.318Z,97703.51
2023-08-24T03:38:43.742Z,97703.77
2023-08-24T03:41:15.983Z,97706.27
2023-08-24T03:43:48.357Z,97711.86
2023-08-24T03:46:21.227Z,97710.15
2023-08-24T03:48:52.354Z,97707.88
2023-08-24T03:51:25.626Z,97710.69
2023-08-24T03:53:58.263Z,97710.98
2023-08-24T03:56:30.689Z,97712.23
2023-08-24T03:59:03.747Z,97710.87
2023-08-24T04:01:36.937Z,97707.20
2023-08-24T04:04:10.694Z,97706.34
2023-08-24T04:06:43.123Z,97707.30
2023-08-24T04:09:19.152Z,97705.73
2023-08-24T04:11:53.596Z,97706.15
2023-08-24T04:14:27.936Z,97708.33
2023-08-24T04:17:00.255Z,97709.23
2023-08-24T04:19:32.974Z,97712.09
2023-08-24T04:22:05.685Z,97713.30
2023-08-24T04:24:38.159Z,97715.86
2023-08-24T04:27:10.728Z,97709.23
2023-08-24T04:29:43.559Z,97708.98
2023-08-24T04:32:15.961Z,97706.95
2023-08-24T04:34:49.192Z,97703.27
2023-08-24T04:37:19.810Z,97705.76
2023-08-24T04:39:52.342Z,97706.15
2023-08-24T04:42:26.671Z,97706.38
2023-08-24T04:45:01.392Z,97708.61
2023-08-24T04:47:35.002Z,97707.13
2023-08-24T04:50:06.527Z,97706.81
2023-08-24T04:52:38.920Z,97700.63
2023-08-24T04:55:12.614Z,97697.56
2023-08-24T04:57:46.204Z,97696.71
2023-08-24T05:00:20.836Z,97696.95
2023-08-24T05:02:53.460Z,97699.60
2023-08-24T05:05:26.136Z,97702.11
2023-08-24T05:07:58.398Z,97701.82
2023-08-24T05:10:33.078Z,97700.61
2023-08-24T05:13:06.802Z,97699.06
2023-08-24T05:15:39.319Z,97695.40
2023-08-24T05:18:12.469Z,97697.97
2023-08-24T05:20:44.944Z,97696.35
2023-08-24T05:23:17.527Z,97697.70
2023-08-24T05:25:50.165Z,97698.17
2023-08-24T05:28:22.587Z,97703.39
2023-08-24T05:30:56.205Z,97707.52
2023-08-24T05:33:32.342Z,97708.73
2023-08-24T05:36:04.654Z,97713.05
2023-08-24T05:38:39.587Z,97713.27
2023-08-24T05:41:12.409Z,97708.85
2023-08-24T05:43:45.366Z,97706.26
2023-08-24T05:46:17.876Z,97706.14
2023-08-24T05:48:50.377Z,97707.18
2023-08-24T05:51:23.107Z,97705.17
2023-08-24T05:53:57.187Z,97711.11
2023-08-24T05:56:29.933Z,97709.38
2023-08-24T05:59:04.199Z,97713.39
2023-08-24T06:01:40.693Z,97711.15
2023-08-24T06:04:13.871Z,97712.75
2023-08-24T06:06:44.789Z,97711.61
2023-08-24T06:09:17.948Z,97712.65
2023-08-24T06:11:50.509Z,97712.35
2023-08-24T06:14:23.309Z,97711.80
2023-08-24T06:16:57.248Z,97713.88
2023-08-24T06:19:30.105Z,97713.40
2023-08-24T06:22:02.690Z,97711.45
2023-08-24T06:24:35.140Z,97714.61
2023-08-24T06:27:07.910Z,97714.60
2023-08-24T06:29:40.661Z,97711.88
2023-08-24T06:32:13.498Z,97710.04
2023-08-24T06:34:47.257Z,97712.06
2023-08-24T06:37:19.815Z,97715.79
2023-08-24T06:39:53.578Z,97708.08
2023-08-24T06:42:26.068Z,97709.46
2023-08-24T06:44:59.027Z,97710.02
2023-08-24T06:47:32.316Z,97709.49
2023-08-24T06:50:02.979Z,97710.33
2023-08-24T06:52:35.597Z,97712.21
2023-08-24T06:55:09.376Z,97707.63
2023-08-24T06:57:42.121Z,97710.71
2023-08-24T07:00:16.413Z,97714.57
2023-08-24T07:02:50.766Z,97721.75
2023-08-24T07:05:25.024Z,97723.23
2023-08-24T07:07:58.172Z,97726.92
2023-08-24T07:10:30.807Z,97724.90
2023-08-24T07:13:03.688Z,97726.20
2023-08-24T07:15:39.661Z,97727.63
2023-08-24T07:18:13.845Z,97725.49
2023-08-24T07:20:51.502Z,97728.65
2023-08-24T07:23:24.312Z,97733.07
2023-08-24T07:25:56.864Z,97736.39
2023-08-24T07:28:29.586Z,97744.26
2023-08-24T07:31:00.296Z,97746.77
2023-08-24T11:41:37.774Z,97650.94
2023-08-24T11:44:22.817Z,97653.13
2023-08-24T11:47:02.789Z,97646.73
2023-08-24T11:49:35.958Z,97645.06
2023-08-24T11:52:08.746Z,97642.90
2023-08-24T11:54:41.220Z,97638.56
2023-08-24T11:57:14.419Z,97637.66
2023-08-24T11:59:48.198Z,97637.09
2023-08-24T12:02:20.901Z,97635.85
2023-08-24T12:04:52.910Z,97633.44
2023-08-24T12:07:28.823Z,97632.89
2023-08-24T12:10:04.972Z,97629.57
2023-08-24T12:12:37.564Z,97624.05
2023-08-24T12:15:17.773Z,97619.47
2023-08-24T12:17:50.899Z,97618.85
2023-08-24T12:20:27.273Z,97617.04
2023-08-24T12:23:01.986Z,97612.45
2023-08-24T12:25:38.952Z,97614.45
2023-08-24T12:28:16.630Z,97609.38
2023-08-24T12:30:54.542Z,97608.73
2023-08-24T12:33:32.637Z,97606.77
2023-08-24T12:38:26.383Z,97602.25
2023-08-24T12:40:58.894Z,97606.70
2023-08-24T12:43:31.574Z,97607.23
2023-08-24T12:46:04.405Z,97610.49
2023-08-24T12:48:39.793Z,97610.40
2023-08-24T12:51:13.970Z,97606.01
2023-08-24T12:53:46.991Z,97606.57
2023-08-24T12:56:20.997Z,97607.63
2023-08-24T12:58:54.267Z,97602.39
2023-08-24T13:01:26.968Z,97594.66
2023-08-24T13:04:01.677Z,97590.30
2023-08-24T13:06:35.911Z,97585.27
2023-08-24T13:09:08.566Z,97579.21
2023-08-24T13:11:41.360Z,97574.33
2023-08-24T13:14:14.075Z,97574.59
2023-08-24T13:16:45.264Z,97576.27
2023-08-24T13:19:18.144Z,97576.16
2023-08-24T13:21:51.231Z,97576.90
2023-08-24T13:24:25.449Z,97572.48
2023-08-24T13:26:59.012Z,97568.13
2023-08-24T13:29:32.800Z,97568.16
2023-08-24T13:32:08.396Z,97563.73
2023-08-24T13:34:41.222Z,97560.25
2023-08-24T13:37:15.561Z,97559.91
2023-08-24T13:39:48.118Z,97559.52
2023-08-24T13:42:20.765Z,97559.23
2023-08-24T13:44:53.614Z,97565.67
2023-08-24T13:47:26.447Z,97560.52
2023-08-24T13:49:59.009Z,97557.95
2023-08-24T13:52:32.521Z,97556.73
2023-08-24T13:55:12.905Z,97556.58
2023-08-24T13:57:47.219Z,97549.30
2023-08-24T14:00:24.770Z,97549.31
2023-08-24T14:02:57.146Z,97549.02
2023-08-24T14:05:29.858Z,97549.30
2023-08-24T14:08:02.934Z,97548.08
2023-08-24T14:10:35.592Z,97547.19
2023-08-24T14:13:08.796Z,97542.11
2023-08-24T14:15:43.907Z,97542.48
2023-08-24T14:18:16.861Z,97540.60
2023-08-24T14:20:49.413Z,97533.61
2023-08-24T14:23:22.105Z,97529.05
2023-08-24T14:25:57.160Z,97529.97
2023-08-24T14:28:49.597Z,97536.33
2023-08-24T14:31:22.804Z,97539.17
2023-08-24T14:33:55.946Z,97540.65
2023-08-24T14:36:29.308Z,97542.02
2023-08-24T14:39:02.926Z,97539.42
2023-08-24T14:41:35.617Z,97542.56
2023-08-24T14:44:08.400Z,97540.98
2023-08-24T14:46:41.762Z,97542.98
2023-08-24T14:49:20.176Z,97547.46
2023-08-24T14:51:52.905Z,97541.11
2023-08-24T14:54:25.362Z,97542.18
2023-08-24T14:56:57.710Z,97539.09
2023-08-24T14:59:30.418Z,97537.08
2023-08-24T15:02:03.977Z,97537.02
2023-08-24T15:04:36.589Z,97534.18
2023-08-24T15:07:09.019Z,97528.36
2023-08-24T15:09:40.009Z,97525.63
2023-08-24T15:12:12.621Z,97521.88
2023-08-24T15:14:58.964Z,97521.50
2023-08-24T15:17:35.203Z,97522.11
2023-08-24T15:20:09.736Z,97520.77
2023-08-24T15:22:42.349Z,97519.08
2023-08-24T15:25:15.600Z,97514.65
2023-08-24T15:27:48.621Z,97519.17
2023-08-24T15:30:21.495Z,97514.38
2023-08-24T15:32:54.027Z,97517.35
2023-08-24T15:35:28.796Z,97513.99
2023-08-24T15:38:03.453Z,97509.80
2023-08-24T15:40:36.285Z,97506.66
2023-08-24T15:43:09.760Z,97501.02
2023-08-24T15:45:43.881Z,97495.56
2023-08-24T15:48:16.330Z,97487.08
2023-08-24T15:50:51.277Z,97485.48
2023-08-24T15:53:26.425Z,97483.58
2023-08-24T15:56:01.362Z,97478.61
2023-08-24T15:58:34.520Z,97479.95
2023-08-24T16:01:07.440Z,97482.26
2023-08-24T16:03:39.780Z,97480.84
2023-08-24T16:06:12.458Z,97482.56
2023-08-24T16:08:52.896Z,97482.94
2023-08-24T16:11:34.897Z,97484.91
2023-08-24T16:14:13.935Z,97479.05
2023-08-24T16:16:47.193Z,97477.42
2023-08-24T16:19:17.978Z,97474.06
2023-08-24T16:21:50.613Z,97471.51
2023-08-24T16:24:21.277Z,97468.66
2023-08-24T16:26:53.822Z,97464.85
2023-08-24T16:29:24.608Z,97466.96
2023-08-24T16:31:57.752Z,97469.04
2023-08-24T16:34:31.467Z,97461.70
2023-08-24T16:37:04.777Z,97459.73
2023-08-24T16:39:37.146Z,97457.27
2023-08-24T16:42:09.865Z,97453.20
2023-08-24T16:44:42.435Z,97453.85
2023-08-24T16:47:15.637Z,97455.36
2023-08-24T16:49:48.405Z,97454.02
2023-08-24T16:52:21.250Z,97451.25
2023-08-24T16:54:54.275Z,97455.60
2023-08-24T16:57:25.199Z,97461.70
2023-08-24T16:59:57.763Z,97466.71
2023-08-24T17:02:31.222Z,97463.61
2023-08-24T17:05:05.274Z,97458.95
2023-08-24T17:07:42.275Z,97460.87
2023-08-24T17:10:16.165Z,97464.11
2023-08-24T17:12:48.640Z,97466.67
2023-08-24T17:15:21.444Z,97466.65
2023-08-24T17:17:54.150Z,97466.70
2023-08-24T17:20:27.025Z,97464.83
2023-08-24T17:22:59.725Z,97465.89
2023-08-24T17:25:32.485Z,97462.40
2023-08-24T17:28:07.804Z,97462.14
2023-08-24T17:30:40.786Z,97468.23
2023-08-24T17:33:14.088Z,97464.96
2023-08-24T17:35:46.828Z,97457.95
2023-08-24T17:38:21.775Z,97455.48
2023-08-24T17:40:58.045Z,97453.54
2023-08-24T17:43:30.807Z,97453.05
2023-08-24T17:46:06.576Z,97451.02
2023-08-24T17:48:39.566Z,97456.10
2023-08-24T17:51:12.833Z,97451.30
2023-08-24T17:53:45.670Z,97459.37
2023-08-24T17:56:17.304Z,97461.67
2023-08-24T17:58:50.134Z,97466.93
2023-08-24T18:01:23.021Z,97467.25
2023-08-24T18:03:56.239Z,97470.27
2023-08-24T18:06:29.041Z,97473.80
2023-08-24T18:09:01.002Z,97481.21
2023-08-24T18:11:33.906Z,97489.81
2023-08-24T18:14:04.638Z,97487.51
2023-08-24T18:16:37.098Z,97482.70
2023-08-24T18:19:09.790Z,97488.34
2023-08-24T18:21:42.626Z,97496.69
2023-08-24T18:24:15.090Z,97508.02
2023-08-24T18:26:47.753Z,97503.48
2023-08-24T18:29:21.925Z,97502.38
2023-08-24T18:31:56.528Z,97500.90
2023-08-24T18:34:31.601Z,97502.96
2023-08-24T18:37:04.400Z,97507.84
2023-08-24T18:39:37.608Z,97511.63
2023-08-24T18:42:10.307Z,97516.87
2023-08-24T18:44:43.466Z,97514.58
2023-08-24T18:47:16.146Z,97510.83
2023-08-24T18:49:48.771Z,97507.45
2023-08-24T18:52:21.531Z,97511.48
2023-08-24T18:54:54.140Z,97520.06
2023-08-24T18:57:26.731Z,97520.10
2023-08-24T18:59:59.608Z,97519.13
2023-08-24T19:02:32.250Z,97514.61
2023-08-24T19:05:07.103Z,97510.90
2023-08-24T19:07:40.418Z,97509.52
2023-08-24T19:10:14.678Z,97510.09
2023-08-24T19:12:49.989Z,97512.52
2023-08-24T19:15:26.429Z,97505.43
2023-08-24T19:18:07.790Z,97502.42
2023-08-24T19:20:44.106Z,97502.30
2023-08-24T19:23:16.477Z,97499.77
2023-08-24T19:25:51.440Z,97494.40
2023-08-24T19:28:25.455Z,97491.97
2023-08-24T19:30:58.416Z,97486.23
2023-08-24T19:33:32.845Z,97488.49
2023-08-24T19:36:06.216Z,97490.28
2023-08-24T19:38:39.877Z,97488.77
2023-08-24T19:41:17.716Z,97487.27
2023-08-24T19:43:53.096Z,97484.02
2023-08-24T19:46:30.330Z,97489.49
2023-08-24T19:49:04.061Z,97491.75
2023-08-24T19:51:40.347Z,97490.83
2023-08-24T19:54:22.513Z,97490.13
2023-08-24T19:56:58.253Z,97490.09
2023-08-24T19:59:30.738Z,97485.02
2023-08-24T20:02:04.054Z,97480.61
2023-08-24T20:04:36.578Z,97482.08
2023-08-24T20:07:09.110Z,97481.23
2023-08-24T20:09:42.089Z,97484.91
2023-08-24T20:12:16.217Z,97487.17
2023-08-24T20:14:48.864Z,97482.48
2023-08-24T20:17:22.348Z,97485.64
2023-08-24T20:19:54.685Z,97480.27
2023-08-24T20:22:27.471Z,97485.83
2023-08-24T20:24:59.926Z,97485.67
2023-08-24T20:27:34.057Z,97491.44
2023-08-24T20:30:07.485Z,97483.89
2023-08-24T20:32:40.578Z,97476.02
2023-08-24T20:35:16.648Z,97471.02
2023-08-24T20:37:54.054Z,97469.41
2023-08-24T20:40:26.527Z,97470.36
2023-08-24T20:42:58.981Z,97470.55
2023-08-24T20:45:32.181Z,97472.26
2023-08-24T20:48:05.990Z,97469.57
2023-08-24T20:50:39.727Z,97466.47
2023-08-24T20:53:16.605Z,97472.78
2023-08-24T20:55:51.290Z,97468.73
2023-08-24T20:58:24.179Z,97472.17
2023-08-24T21:00:57.610Z,97472.13
2023-08-24T21:03:30.609Z,97475.38
2023-08-24T21:06:04.442Z,97474.48
2023-08-24T21:08:36.964Z,97475.70
2023-08-24T21:11:09.245Z,97474.14
2023-08-24T21:13:44.708Z,97474.17
2023-08-24T21:16:17.249Z,97472.86
2023-08-24T21:18:50.146Z,97473.04
2023-08-24T21:21:25.086Z,97469.55
2023-08-24T21:23:57.544Z,97473.75
2023-08-24T21:26:31.657Z,97477.77
2023-08-24T21:29:04.505Z,97479.14
2023-08-24T21:31:36.941Z,97477.20
2023-08-24T21:34:12.758Z,97469.38
2023-08-24T21:36:49.234Z,97471.94
2023-08-24T21:39:25.066Z,97472.90
2023-08-24T21:41:58.447Z,97475.43
2023-08-24T21:44:35.874Z,97470.11
2023-08-24T21:47:08.455Z,97465.11
2023-08-24T21:49:40.728Z,97463.29
2023-08-24T21:52:13.188Z,97463.86
2023-08-24T21:54:45.681Z,97459.23
2023-08-24T21:57:23.822Z,97455.92
2023-08-24T21:59:56.481Z,97453.71
2023-08-24T22:02:30.121Z,97451.39
2023-08-24T22:05:02.637Z,97447.16
2023-08-24T22:07:35.006Z,97439.70
2023-08-24T22:10:08.966Z,97434.11
2023-08-24T22:12:41.455Z,97434.81
2023-08-24T22:15:14.633Z,97434.15
2023-08-24T22:17:45.280Z,97431.18
2023-08-24T22:20:19.594Z,97431.10
2023-08-24T22:22:52.556Z,97427.02
2023-08-24T22:25:28.924Z,97425.39
2023-08-24T22:28:02.655Z,97423.53
2023-08-24T22:30:36.493Z,97416.15
2023-08-24T22:33:09.777Z,97416.25
2023-08-24T22:35:40.433Z,97409.38
2023-08-24T22:38:13.410Z,97405.99
2023-08-24T22:40:51.191Z,97400.92
2023-08-24T22:43:24.409Z,97392.07
2023-08-24T22:45:55.096Z,97393.80
2023-08-24T22:48:30.039Z,97391.09
2023-08-24T22:51:03.444Z,97388.95
2023-08-24T22:53:36.117Z,97387.88
2023-08-24T22:56:09.034Z,97381.66
2023-08-24T22:58:41.497Z,97377.12
2023-08-24T23:01:21.919Z,97375.33
2023-08-24T23:03:54.516Z,97368.54
2023-08-24T23:06:48.435Z,97366.59
2023-08-24T23:09:23.432Z,97368.06
2023-08-24T23:11:57.404Z,97358.29
2023-08-24T23:14:29.846Z,97351.91
2023-08-24T23:17:02.442Z,97346.38
2023-08-24T23:19:37.468Z,97338.20
2023-08-24T23:22:10.031Z,97335.37
2023-08-24T23:27:17.930Z,97336.39
2023-08-24T23:29:50.753Z,97336.30
2023-08-24T23:32:23.137Z,97343.55
2023-08-24T23:34:55.425Z,97348.95
2023-08-24T23:37:31.732Z,97348.80
2023-08-24T23:40:05.348Z,97350.98
2023-08-24T23:42:37.700Z,97345.09
2023-08-24T23:45:12.427Z,97347.86
2023-08-24T23:47:45.377Z,97346.60
2023-08-24T23:50:18.177Z,97347.49
2023-08-24T23:52:51.015Z,97356.09
2023-08-24T23:55:25.271Z,97363.98
2023-08-24T23:57:58.086Z,97371.70
